Time;durP1;ratioP1;P1;durP2;ratioP2;P2;SDS_P1;SDS_P2;PMS_P1;PMS_P2;Temp;Humidity;BMP_temperature;BMP_pressure;BME280_temperature;BME280_humidity;BME280_pressure;Samples;Min_cycle;Max_cycle;Signal;HPM_P1;HPM_P2
2021/01/14 00:00:03;;;;;;;0.77;0.45;;;20.50;44.20;;;;;;5090502;28;20027;-70
2021/01/14 00:02:28;;;;;;;1.13;0.57;;;20.50;44.10;;;;;;5089596;28;20031;-70
2021/01/14 00:04:54;;;;;;;4.53;0.70;;;20.50;44.10;;;;;;5092163;28;20032;-69
2021/01/14 00:07:20;;;;;;;0.88;0.50;;;20.50;44.10;;;;;;5090854;28;20464;-69
2021/01/14 00:09:46;;;;;;;0.82;0.45;;;20.50;44.10;;;;;;5091603;28;20380;-70
2021/01/14 00:33:08;;;;;;;0.73;0.40;;;20.50;43.90;;;;;;5242894;22;20053;-61
2021/01/14 00:35:33;;;;;;;1.23;0.60;;;20.50;44.00;;;;;;5071578;28;20640;-61
2021/01/14 00:38:04;;;;;;;1.55;0.47;;;20.50;43.90;;;;;;5070270;28;20021;-61
2021/01/14 00:40:32;;;;;;;0.88;0.50;;;20.50;43.90;;;;;;5061742;28;20028;-62
2021/01/14 00:43:03;;;;;;;0.75;0.40;;;20.50;43.90;;;;;;5053957;28;20025;-60
2021/01/14 00:45:31;;;;;;;0.50;0.30;;;20.50;43.90;;;;;;5054595;28;20029;-61
2021/01/14 01:08:07;;;;;;;1.20;0.40;;;20.60;43.80;;;;;;5341536;22;20299;-70
2021/01/14 01:10:33;;;;;;;2.30;0.50;;;20.60;43.80;;;;;;5055221;28;20147;-70
2021/01/14 01:13:00;;;;;;;0.70;0.50;;;20.60;43.70;;;;;;5054574;28;20454;-71
2021/01/14 01:15:27;;;;;;;1.05;0.40;;;20.60;43.70;;;;;;5054371;28;20039;-71
2021/01/14 01:17:54;;;;;;;0.85;0.40;;;20.60;43.60;;;;;;5053607;28;20049;-70
2021/01/14 01:20:19;;;;;;;0.65;0.38;;;20.60;43.60;;;;;;5054349;28;20454;-70
2021/01/14 01:22:45;;;;;;;0.45;0.40;;;20.60;43.60;;;;;;5053927;28;20025;-62
2021/01/14 01:25:11;;;;;;;1.80;0.60;;;20.60;43.50;;;;;;5054737;28;20457;-70
2021/01/14 01:27:37;;;;;;;1.10;0.43;;;20.60;43.50;;;;;;5054188;28;20382;-70
2021/01/14 01:30:06;;;;;;;0.88;0.50;;;20.60;43.50;;;;;;5053271;28;20024;-70
2021/01/14 01:32:31;;;;;;;0.60;0.40;;;20.60;43.50;;;;;;5053856;28;20027;-70
2021/01/14 01:34:57;;;;;;;1.48;0.35;;;20.60;43.50;;;;;;5053112;28;20037;-67
2021/01/14 01:37:23;;;;;;;0.70;0.47;;;20.60;43.50;;;;;;5054199;28;20029;-68
2021/01/14 01:39:48;;;;;;;0.70;0.40;;;20.60;43.50;;;;;;5052930;28;20417;-69
2021/01/14 01:42:14;;;;;;;0.38;0.30;;;20.60;43.50;;;;;;5054028;28;20373;-69
2021/01/14 01:44:43;;;;;;;1.52;0.30;;;20.60;43.50;;;;;;5053589;28;20032;-70
2021/01/14 01:47:08;;;;;;;0.40;0.40;;;20.60;43.50;;;;;;5033380;28;20021;-70
2021/01/14 01:49:37;;;;;;;1.02;0.50;;;20.60;43.50;;;;;;5033958;28;20464;-71
2021/01/14 01:52:07;;;;;;;1.02;0.40;;;20.60;43.50;;;;;;5033216;28;20722;-69
2021/01/14 01:54:34;;;;;;;0.65;0.40;;;20.60;43.50;;;;;;5034032;28;20026;-70
2021/01/14 01:57:01;;;;;;;0.55;0.30;;;20.60;43.40;;;;;;5051878;28;20045;-69
2021/01/14 01:59:30;;;;;;;0.43;0.30;;;20.60;43.40;;;;;;5054022;28;20526;-70
2021/01/14 02:01:56;;;;;;;0.90;0.70;;;20.60;43.40;;;;;;5053846;28;20025;-69
2021/01/14 02:04:21;;;;;;;0.70;0.40;;;20.60;43.40;;;;;;5053965;28;20135;-69
2021/01/14 02:19:44;;;;;;;0.73;0.50;;;20.60;43.30;;;;;;4993119;23;20527;-61
2021/01/14 02:22:28;;;;;;;0.82;0.50;;;20.60;43.30;;;;;;4957201;28;20082;-61
2021/01/14 02:25:19;;;;;;;0.40;0.30;;;20.60;43.20;;;;;;4955420;28;20035;-61
2021/01/14 02:27:46;;;;;;;0.65;0.40;;;20.60;43.20;;;;;;4954696;28;20045;-61
2021/01/14 02:30:12;;;;;;;0.60;0.60;;;20.60;43.20;;;;;;4955059;28;20038;-61
2021/01/14 02:32:41;;;;;;;0.40;0.30;;;20.60;43.20;;;;;;4954128;28;20487;-61
2021/01/14 02:35:07;;;;;;;0.45;0.40;;;20.60;43.20;;;;;;4955144;28;20038;-62
2021/01/14 02:37:33;;;;;;;0.73;0.30;;;20.60;43.10;;;;;;4953331;28;20031;-61
2021/01/14 02:39:59;;;;;;;0.73;0.35;;;20.60;43.10;;;;;;4953779;29;20026;-61
2021/01/14 02:42:24;;;;;;;0.40;0.38;;;20.60;43.10;;;;;;4954271;28;20540;-62
2021/01/14 02:44:50;;;;;;;1.30;0.35;;;20.60;43.10;;;;;;4953798;29;20059;-61
2021/01/14 02:47:17;;;;;;;0.60;0.30;;;20.60;43.10;;;;;;4954565;28;20046;-61
2021/01/14 02:49:53;;;;;;;0.73;0.30;;;20.60;43.10;;;;;;4954460;28;20059;-61
2021/01/14 02:52:19;;;;;;;0.32;0.30;;;20.60;43.10;;;;;;4954612;28;20042;-62
2021/01/14 02:54:46;;;;;;;0.40;0.40;;;20.60;43.10;;;;;;4954414;28;20035;-61
2021/01/14 02:57:13;;;;;;;1.05;0.40;;;20.60;43.00;;;;;;4954263;28;20034;-62
2021/01/14 02:59:39;;;;;;;0.68;0.35;;;20.60;43.00;;;;;;4953478;28;20115;-61
2021/01/14 03:02:05;;;;;;;0.30;0.30;;;20.60;43.00;;;;;;4954184;28;20059;-61
2021/01/14 03:04:30;;;;;;;0.63;0.52;;;20.60;43.00;;;;;;4953707;29;20062;-62
2021/01/14 03:06:56;;;;;;;0.38;0.30;;;20.60;43.00;;;;;;4953273;29;20024;-61
2021/01/14 03:09:21;;;;;;;0.60;0.45;;;20.60;43.00;;;;;;4953520;29;20071;-64
2021/01/14 03:11:47;;;;;;;0.52;0.40;;;20.60;42.90;;;;;;4954040;28;20031;-61
2021/01/14 03:14:14;;;;;;;0.77;0.47;;;20.70;43.00;;;;;;4952801;29;20118;-61
2021/01/14 03:16:40;;;;;;;0.70;0.45;;;20.60;42.90;;;;;;4953026;28;20658;-62
2021/01/14 03:19:06;;;;;;;0.85;0.40;;;20.60;42.90;;;;;;4954124;28;20082;-62
2021/01/14 03:21:32;;;;;;;0.65;0.40;;;20.60;42.90;;;;;;4953623;28;20478;-62
2021/01/14 03:23:57;;;;;;;0.55;0.40;;;20.60;42.90;;;;;;4954199;28;20035;-62
2021/01/14 03:26:23;;;;;;;0.25;0.25;;;20.60;42.90;;;;;;4953298;29;20487;-62
2021/01/14 03:28:50;;;;;;;0.32;0.32;;;20.60;42.90;;;;;;4954563;28;20101;-61
2021/01/14 03:31:17;;;;;;;0.40;0.30;;;20.60;42.80;;;;;;4953824;28;20027;-61
2021/01/14 03:33:44;;;;;;;0.65;0.50;;;20.60;42.80;;;;;;4952998;28;20028;-61
2021/01/14 03:36:14;;;;;;;1.00;0.50;;;20.70;42.80;;;;;;4954201;28;20046;-61
2021/01/14 03:38:40;;;;;;;0.70;0.68;;;20.60;42.80;;;;;;4953286;28;20226;-61
2021/01/14 03:41:13;;;;;;;0.45;0.40;;;20.60;42.80;;;;;;4952760;29;20032;-61
2021/01/14 03:43:39;;;;;;;0.40;0.30;;;20.60;42.80;;;;;;4952737;28;20043;-61
2021/01/14 03:46:23;;;;;;;0.70;0.40;;;20.60;42.80;;;;;;4953726;28;20028;-61
2021/01/14 03:48:49;;;;;;;0.80;0.40;;;20.60;42.70;;;;;;4953861;29;20039;-61
2021/01/14 03:51:22;;;;;;;0.50;0.40;;;20.60;42.70;;;;;;4953654;29;20384;-61
2021/01/14 03:53:50;;;;;;;0.73;0.30;;;20.60;42.80;;;;;;4952332;29;20031;-61
2021/01/14 03:56:17;;;;;;;0.70;0.40;;;20.60;42.80;;;;;;4953955;28;20040;-61
2021/01/14 03:58:43;;;;;;;0.65;0.30;;;20.60;42.70;;;;;;4953420;28;20157;-61
2021/01/14 04:01:09;;;;;;;0.80;0.35;;;20.60;42.70;;;;;;4953820;28;20043;-61
2021/01/14 04:03:44;;;;;;;0.63;0.40;;;20.60;42.80;;;;;;4953050;29;20038;-61
2021/01/14 04:06:10;;;;;;;0.63;0.40;;;20.60;42.80;;;;;;4953848;29;20408;-62
2021/01/14 04:08:36;;;;;;;0.40;0.35;;;20.60;42.70;;;;;;4952907;28;20062;-62
2021/01/14 04:11:03;;;;;;;0.70;0.40;;;20.60;42.70;;;;;;4953492;28;20429;-62
2021/01/14 04:13:29;;;;;;;0.40;0.40;;;20.70;42.80;;;;;;4955927;28;20035;-62
2021/01/14 04:15:55;;;;;;;0.57;0.30;;;20.60;42.70;;;;;;4957716;28;20035;-61
2021/01/14 04:18:20;;;;;;;0.65;0.30;;;20.60;42.70;;;;;;4957281;29;20512;-62
2021/01/14 04:20:46;;;;;;;0.90;0.50;;;20.60;42.70;;;;;;4956236;29;20031;-61
2021/01/14 04:23:12;;;;;;;1.90;0.35;;;20.60;42.70;;;;;;4957701;29;20035;-61
2021/01/14 04:25:38;;;;;;;1.88;0.30;;;20.60;42.70;;;;;;4956779;28;20064;-61
2021/01/14 04:28:04;;;;;;;1.17;0.45;;;20.70;42.80;;;;;;4957349;28;20079;-61
2021/01/14 04:30:34;;;;;;;0.80;0.30;;;20.70;42.80;;;;;;4956277;28;20499;-62
2021/01/14 04:33:12;;;;;;;1.33;0.40;;;20.70;42.80;;;;;;4957213;28;20035;-62
2021/01/14 04:35:54;;;;;;;1.08;0.60;;;20.60;42.70;;;;;;4956633;28;20028;-62
2021/01/14 04:38:22;;;;;;;1.10;0.30;;;20.60;43.30;;;;;;4957192;28;20035;-62
2021/01/14 04:41:02;;;;;;;0.70;0.40;;;20.60;42.70;;;;;;4956704;28;20031;-62
2021/01/14 04:43:30;;;;;;;0.65;0.50;;;20.60;42.70;;;;;;4956563;28;20193;-62
2021/01/14 04:46:07;;;;;;;0.60;0.40;;;20.60;42.70;;;;;;4956812;28;20525;-62
2021/01/14 04:48:41;;;;;;;0.40;0.30;;;20.60;42.70;;;;;;4956275;28;20066;-62
2021/01/14 04:51:10;;;;;;;0.52;0.35;;;20.60;42.60;;;;;;4955745;29;20370;-62
2021/01/14 04:53:37;;;;;;;0.40;0.30;;;20.70;42.70;;;;;;4956113;28;20031;-62
2021/01/14 04:56:07;;;;;;;0.30;0.30;;;20.70;42.70;;;;;;4956919;28;20074;-62
2021/01/14 04:58:35;;;;;;;0.60;0.40;;;20.60;42.60;;;;;;4954526;29;20031;-62
2021/01/14 05:01:16;;;;;;;0.68;0.40;;;20.70;42.70;;;;;;4956893;28;20031;-61
2021/01/14 05:03:47;;;;;;;0.67;0.40;;;20.60;42.60;;;;;;4956201;28;20817;-62
2021/01/14 05:06:24;;;;;;;0.28;0.28;;;20.70;42.70;;;;;;4956896;28;20039;-62
2021/01/14 05:08:54;;;;;;;0.90;0.30;;;20.70;42.70;;;;;;4937351;29;20028;-61
2021/01/14 05:11:24;;;;;;;0.77;0.43;;;20.60;42.60;;;;;;4937648;29;20432;-62
2021/01/14 05:13:50;;;;;;;1.40;0.40;;;20.60;42.60;;;;;;4937158;29;20036;-62
2021/01/14 05:16:15;;;;;;;0.30;0.30;;;20.60;42.60;;;;;;4937344;29;20027;-63
2021/01/14 05:18:41;;;;;;;0.40;0.30;;;20.60;42.60;;;;;;4985979;28;20087;-62
2021/01/14 05:21:07;;;;;;;0.77;0.50;;;20.60;42.60;;;;;;4956852;29;20035;-62
2021/01/14 05:23:33;;;;;;;0.40;0.30;;;20.60;42.60;;;;;;4955385;28;20027;-62
2021/01/14 05:26:00;;;;;;;0.50;0.32;;;20.60;42.60;;;;;;4956038;29;20035;-62
2021/01/14 05:28:28;;;;;;;0.82;0.50;;;20.60;42.60;;;;;;4955531;28;20028;-62
2021/01/14 05:31:11;;;;;;;1.02;0.40;;;20.60;42.60;;;;;;4955900;28;20035;-62
2021/01/14 05:33:37;;;;;;;0.60;0.40;;;20.60;42.60;;;;;;4955529;28;20464;-62
2021/01/14 05:36:04;;;;;;;0.70;0.30;;;20.60;43.20;;;;;;4956646;28;20111;-62
2021/01/14 05:38:32;;;;;;;0.50;0.30;;;20.60;42.50;;;;;;4971097;28;20490;-62
2021/01/14 05:41:18;;;;;;;0.85;0.40;;;20.70;42.60;;;;;;4959522;28;20054;-62
2021/01/14 05:44:02;;;;;;;1.20;0.60;;;20.60;42.60;;;;;;4955772;28;20045;-62
2021/01/14 05:46:30;;;;;;;0.90;0.35;;;20.60;42.50;;;;;;4954763;28;20038;-63
2021/01/14 05:48:58;;;;;;;1.10;0.52;;;20.70;42.60;;;;;;4955999;28;20039;-62
2021/01/14 05:51:26;;;;;;;0.70;0.40;;;20.60;42.60;;;;;;4955835;28;20035;-62
2021/01/14 05:54:09;;;;;;;0.60;0.30;;;20.60;42.60;;;;;;4955761;28;20031;-62
2021/01/14 05:56:45;;;;;;;0.50;0.40;;;20.60;42.60;;;;;;4954669;28;20037;-62
2021/01/14 05:59:13;;;;;;;0.47;0.38;;;20.60;42.50;;;;;;4955441;28;20484;-62
2021/01/14 06:02:01;;;;;;;0.85;0.40;;;20.60;42.80;;;;;;4954718;28;20419;-62
2021/01/14 06:04:28;;;;;;;0.50;0.40;;;20.60;42.50;;;;;;4955621;29;20039;-62
2021/01/14 06:07:04;;;;;;;0.30;0.30;;;20.60;42.50;;;;;;4955404;28;20082;-62
2021/01/14 06:09:40;;;;;;;1.27;0.63;;;20.60;42.50;;;;;;4954945;28;20041;-62
2021/01/14 06:12:10;;;;;;;0.52;0.40;;;20.60;42.50;;;;;;4955208;28;20031;-63
2021/01/14 06:14:36;;;;;;;1.33;0.60;;;20.70;42.60;;;;;;4954256;29;20425;-62
2021/01/14 06:17:04;;;;;;;0.98;0.30;;;20.60;42.50;;;;;;4955520;28;20083;-62
2021/01/14 06:19:30;;;;;;;0.70;0.40;;;20.60;42.50;;;;;;4954900;28;20059;-62
2021/01/14 06:21:57;;;;;;;1.67;0.43;;;20.60;42.50;;;;;;4955316;28;20031;-62
2021/01/14 06:24:36;;;;;;;3.45;0.57;;;20.60;42.50;;;;;;4954680;28;20035;-63
2021/01/14 06:27:04;;;;;;;0.70;0.57;;;20.60;42.50;;;;;;4955263;28;20031;-62
2021/01/14 06:29:31;;;;;;;0.50;0.50;;;20.60;42.50;;;;;;4954808;29;20038;-63
2021/01/14 06:32:19;;;;;;;0.40;0.40;;;20.60;42.50;;;;;;4954749;28;20097;-63
2021/01/14 06:34:50;;;;;;;0.65;0.47;;;20.60;42.50;;;;;;4935363;29;20042;-62
2021/01/14 06:37:24;;;;;;;0.80;0.50;;;20.60;42.50;;;;;;4935344;29;20108;-63
2021/01/14 06:39:51;;;;;;;1.77;0.40;;;20.60;42.50;;;;;;4935265;29;20726;-63
2021/01/14 06:42:20;;;;;;;1.23;0.60;;;20.60;42.50;;;;;;4936474;29;20035;-63
2021/01/14 06:44:52;;;;;;;1.40;0.70;;;20.60;42.50;;;;;;4954268;29;20377;-63
2021/01/14 06:47:46;;;;;;;0.85;0.40;;;20.60;42.50;;;;;;4954870;28;20038;-63
2021/01/14 06:50:18;;;;;;;0.50;0.40;;;20.60;42.50;;;;;;4954966;28;20039;-62
2021/01/14 06:52:52;;;;;;;1.27;0.60;;;20.60;42.50;;;;;;4953768;28;20042;-62
2021/01/14 06:55:23;;;;;;;0.88;0.50;;;20.60;42.50;;;;;;4954844;29;20046;-63
2021/01/14 06:58:02;;;;;;;0.95;0.40;;;20.60;42.50;;;;;;4953710;28;20058;-63
2021/01/14 07:00:29;;;;;;;1.13;0.40;;;20.60;42.50;;;;;;4953120;29;20054;-63
2021/01/14 07:03:15;;;;;;;0.93;0.50;;;20.60;42.40;;;;;;4953885;28;20460;-63
2021/01/14 07:06:07;;;;;;;0.90;0.40;;;20.60;42.50;;;;;;4954310;28;20097;-63
2021/01/14 07:09:14;;;;;;;1.00;0.43;;;20.60;42.40;;;;;;4952750;29;20066;-62
2021/01/14 07:11:44;;;;;;;1.05;0.32;;;20.60;42.40;;;;;;4953125;28;20500;-63
2021/01/14 07:14:14;;;;;;;0.77;0.43;;;20.60;42.50;;;;;;4935374;29;20032;-63
2021/01/14 07:16:43;;;;;;;0.95;0.57;;;20.60;42.50;;;;;;4941855;29;20086;-63
2021/01/14 07:19:10;;;;;;;2.03;0.57;;;20.60;42.40;;;;;;4952890;29;20051;-63
2021/01/14 07:21:42;;;;;;;0.68;0.47;;;20.60;42.40;;;;;;4953552;28;20453;-63
2021/01/14 07:24:18;;;;;;;1.48;0.60;;;20.70;42.50;;;;;;4954051;28;20035;-63
2021/01/14 07:27:05;;;;;;;0.40;0.40;;;20.60;42.40;;;;;;4953226;28;20384;-63
2021/01/14 07:29:31;;;;;;;0.50;0.30;;;20.60;42.50;;;;;;4952099;29;20043;-62
2021/01/14 07:31:58;;;;;;;0.88;0.50;;;20.60;42.50;;;;;;4952647;28;20027;-63
2021/01/14 07:34:43;;;;;;;0.90;0.45;;;20.60;42.40;;;;;;4950522;29;20105;-63
2021/01/14 07:37:18;;;;;;;1.25;0.50;;;20.70;42.50;;;;;;4950912;29;20034;-63
2021/01/14 07:39:57;;;;;;;1.25;0.65;;;20.60;42.40;;;;;;4949322;28;20019;-63
2021/01/14 07:42:27;;;;;;;1.00;0.70;;;20.60;42.40;;;;;;4935279;29;20476;-62
2021/01/14 07:44:59;;;;;;;2.78;0.63;;;20.60;42.40;;;;;;4934066;29;20035;-63
2021/01/14 07:47:28;;;;;;;1.45;0.50;;;20.70;43.10;;;;;;4948537;28;20495;-64
2021/01/14 07:49:55;;;;;;;1.27;0.47;;;20.70;42.60;;;;;;4952332;29;20036;-64
2021/01/14 07:52:36;;;;;;;0.95;0.60;;;20.70;42.70;;;;;;4953562;28;20031;-62
2021/01/14 07:55:07;;;;;;;2.95;0.55;;;20.70;42.80;;;;;;4953812;29;20043;-63
2021/01/14 07:57:44;;;;;;;5.10;0.55;;;20.70;42.90;;;;;;4953180;28;20464;-63
2021/01/14 08:00:20;;;;;;;1.38;0.50;;;20.70;43.20;;;;;;4954288;28;20027;-62
2021/01/14 08:03:04;;;;;;;1.05;0.60;;;20.70;43.20;;;;;;4933690;29;20038;-62
2021/01/14 08:05:59;;;;;;;1.15;0.57;;;20.70;43.20;;;;;;4939912;29;20034;-63
2021/01/14 08:08:58;;;;;;;3.33;0.50;;;20.70;43.20;;;;;;4941367;29;20031;-63
2021/01/14 08:11:28;;;;;;;3.58;0.63;;;20.70;43.20;;;;;;4958603;28;20089;-63
2021/01/14 08:14:22;;;;;;;2.35;0.77;;;20.70;43.30;;;;;;4948114;28;20043;-65
2021/01/14 08:16:55;;;;;;;2.28;0.65;;;20.80;43.30;;;;;;4952554;28;20042;-64
2021/01/14 08:19:21;;;;;;;3.35;0.63;;;20.70;43.30;;;;;;4952927;28;20071;-65
2021/01/14 08:22:02;;;;;;;2.70;0.60;;;20.80;43.50;;;;;;4949564;28;20035;-64
2021/01/14 08:24:37;;;;;;;3.05;0.70;;;20.80;43.50;;;;;;4952854;28;20027;-65
2021/01/14 08:27:04;;;;;;;2.88;0.63;;;20.70;43.40;;;;;;4952456;28;20133;-66
2021/01/14 08:29:33;;;;;;;2.30;0.60;;;20.80;43.50;;;;;;4952554;28;20086;-61
2021/01/14 08:31:59;;;;;;;4.28;0.60;;;20.80;43.80;;;;;;4953083;29;20066;-61
2021/01/14 08:34:25;;;;;;;2.38;0.70;;;20.80;43.90;;;;;;4952751;28;20039;-67
2021/01/14 08:36:56;;;;;;;5.78;1.00;;;20.90;44.00;;;;;;4952353;28;20624;-67
2021/01/14 08:39:24;;;;;;;5.65;0.73;;;20.90;44.10;;;;;;4952836;28;20023;-61
2021/01/14 08:41:51;;;;;;;6.28;1.23;;;20.90;44.20;;;;;;4959321;28;20134;-60
2021/01/14 08:44:18;;;;;;;5.03;0.70;;;20.90;44.20;;;;;;4951756;28;20034;-60
2021/01/14 08:46:48;;;;;;;2.65;0.65;;;20.90;44.20;;;;;;4967604;28;20038;-60
2021/01/14 08:49:16;;;;;;;3.85;0.85;;;20.90;44.20;;;;;;4962108;28;20062;-60
2021/01/14 08:51:42;;;;;;;6.35;0.82;;;20.90;44.20;;;;;;4951844;28;20040;-61
2021/01/14 08:54:09;;;;;;;5.13;0.80;;;20.90;44.20;;;;;;4952826;28;20031;-61
2021/01/14 08:56:36;;;;;;;3.13;1.10;;;20.90;44.30;;;;;;4952376;28;20389;-65
2021/01/14 08:59:16;;;;;;;5.50;1.02;;;20.90;44.30;;;;;;4964528;28;20523;-61
2021/01/14 09:01:41;;;;;;;2.92;0.70;;;21.00;44.30;;;;;;4974928;28;20109;-61
2021/01/14 09:04:09;;;;;;;3.35;1.00;;;21.00;44.40;;;;;;4975819;28;20118;-61
2021/01/14 09:06:40;;;;;;;2.53;0.45;;;20.90;44.20;;;;;;4974925;28;20036;-60
2021/01/14 09:09:13;;;;;;;1.90;0.85;;;20.90;44.40;;;;;;4962857;28;20110;-61
2021/01/14 09:11:39;;;;;;;3.28;1.17;;;21.00;44.40;;;;;;4966862;28;20081;-59
2021/01/14 09:14:08;;;;;;;5.43;0.80;;;21.00;44.40;;;;;;4965696;28;20121;-64
2021/01/14 09:16:34;;;;;;;3.45;0.75;;;20.90;44.40;;;;;;4955387;28;20042;-63
2021/01/14 09:19:01;;;;;;;3.20;0.85;;;20.90;44.40;;;;;;4953403;28;20102;-68
2021/01/14 09:21:33;;;;;;;1.52;0.70;;;20.90;44.30;;;;;;4954711;28;20058;-68
2021/01/14 09:24:09;;;;;;;2.35;0.75;;;20.90;44.40;;;;;;4955269;28;20031;-68
2021/01/14 09:26:40;;;;;;;1.92;0.75;;;20.90;44.40;;;;;;4955166;28;20023;-63
2021/01/14 09:29:07;;;;;;;3.17;0.82;;;20.90;44.50;;;;;;4955703;28;20034;-67
2021/01/14 09:31:34;;;;;;;2.42;0.88;;;20.90;44.40;;;;;;4955038;29;20124;-63
2021/01/14 09:34:00;;;;;;;2.70;0.90;;;20.90;44.50;;;;;;4955153;28;20559;-68
2021/01/14 09:36:26;;;;;;;4.65;0.70;;;20.90;44.50;;;;;;4955440;28;20378;-68
2021/01/14 09:39:00;;;;;;;3.70;0.88;;;20.90;44.50;;;;;;4954641;28;20019;-69
2021/01/14 09:41:32;;;;;;;2.65;0.90;;;20.90;44.70;;;;;;4957697;28;20031;-67
2021/01/14 09:44:01;;;;;;;2.72;1.00;;;20.90;44.70;;;;;;4963969;28;20039;-68
2021/01/14 09:46:34;;;;;;;5.28;1.17;;;20.90;44.60;;;;;;4962441;28;20031;-68
2021/01/14 09:49:01;;;;;;;4.10;0.70;;;20.90;44.60;;;;;;4955393;28;20043;-61
2021/01/14 09:51:27;;;;;;;2.42;0.70;;;20.90;44.70;;;;;;4955058;28;20062;-61
2021/01/14 09:53:53;;;;;;;3.05;0.75;;;20.90;44.70;;;;;;4954970;28;20656;-67
2021/01/14 09:56:41;;;;;;;3.55;1.48;;;20.90;44.70;;;;;;4954928;28;20036;-66
2021/01/14 09:59:18;;;;;;;3.08;1.00;;;20.90;44.70;;;;;;4954919;29;20043;-67
2021/01/14 10:01:50;;;;;;;2.83;0.73;;;20.90;45.40;;;;;;4954431;28;20031;-68
2021/01/14 10:04:21;;;;;;;3.00;0.70;;;20.90;44.80;;;;;;4955161;28;20067;-67
2021/01/14 10:06:55;;;;;;;1.95;0.60;;;20.90;44.80;;;;;;4953023;29;20027;-68
2021/01/14 10:09:21;;;;;;;1.20;0.70;;;20.90;45.10;;;;;;4955704;28;20056;-63
2021/01/14 10:11:47;;;;;;;2.60;0.77;;;20.90;45.00;;;;;;4963915;28;20051;-61
2021/01/14 10:14:18;;;;;;;3.35;0.70;;;20.90;44.90;;;;;;4954022;28;20495;-61
2021/01/14 10:16:44;;;;;;;4.05;0.68;;;20.90;45.00;;;;;;4952937;28;20065;-61
2021/01/14 10:19:15;;;;;;;5.68;0.63;;;20.90;44.90;;;;;;4952553;28;20055;-60
2021/01/14 10:21:41;;;;;;;3.75;0.88;;;20.90;45.10;;;;;;4956256;28;20031;-64
2021/01/14 10:24:29;;;;;;;3.08;0.70;;;20.90;45.10;;;;;;4954501;28;20040;-60
2021/01/14 10:27:09;;;;;;;1.65;0.70;;;20.90;45.10;;;;;;4961732;28;20074;-63
2021/01/14 10:29:41;;;;;;;2.60;0.63;;;20.90;45.10;;;;;;4956882;28;20042;-64
2021/01/14 10:32:24;;;;;;;2.75;0.70;;;20.90;45.10;;;;;;4974640;28;20129;-64
2021/01/14 10:34:54;;;;;;;1.98;0.75;;;20.90;45.10;;;;;;4968644;28;20039;-65
2021/01/14 10:37:26;;;;;;;2.10;0.73;;;20.90;45.10;;;;;;4934906;29;20039;-65
2021/01/14 10:39:55;;;;;;;2.13;1.13;;;20.80;45.10;;;;;;4957686;28;20747;-69
2021/01/14 10:42:27;;;;;;;4.70;1.10;;;20.80;45.00;;;;;;4963851;28;20388;-71
2021/01/14 10:44:54;;;;;;;4.15;0.68;;;20.90;45.00;;;;;;4965071;28;20027;-67
2021/01/14 10:47:22;;;;;;;4.10;1.00;;;20.90;45.00;;;;;;4950305;28;20035;-68
2021/01/14 10:49:48;;;;;;;1.33;0.65;;;20.80;45.00;;;;;;4953606;28;20487;-67
2021/01/14 10:52:13;;;;;;;4.55;0.90;;;20.80;45.10;;;;;;4953046;28;20027;-68
2021/01/14 10:54:39;;;;;;;1.80;0.85;;;20.80;45.00;;;;;;4953797;28;20057;-67
2021/01/14 10:57:05;;;;;;;3.88;1.10;;;20.80;45.00;;;;;;4953061;28;20043;-66
2021/01/14 10:59:31;;;;;;;5.55;0.93;;;20.80;45.10;;;;;;4951009;28;20023;-68
2021/01/14 11:02:04;;;;;;;3.35;1.10;;;20.90;45.10;;;;;;4953497;28;20056;-66
2021/01/14 11:04:30;;;;;;;5.03;1.10;;;20.90;45.20;;;;;;4955414;28;20028;-67
2021/01/14 11:06:56;;;;;;;3.90;0.85;;;20.80;45.20;;;;;;4954450;28;20030;-67
2021/01/14 11:09:22;;;;;;;3.88;0.85;;;20.80;45.20;;;;;;4953247;28;20082;-69
2021/01/14 11:11:47;;;;;;;3.35;0.80;;;20.90;45.20;;;;;;4949407;28;20039;-68
2021/01/14 11:14:17;;;;;;;9.13;0.90;;;20.90;45.50;;;;;;4952313;28;21591;-70
2021/01/14 11:16:42;;;;;;;2.20;0.85;;;20.90;45.70;;;;;;4952625;28;20596;-71
2021/01/14 11:19:10;;;;;;;7.32;1.00;;;20.90;46.30;;;;;;4950308;28;20138;-69
2021/01/14 11:21:37;;;;;;;4.40;1.00;;;21.00;46.70;;;;;;4951730;28;20035;-66
2021/01/14 11:24:04;;;;;;;4.72;1.05;;;21.00;47.80;;;;;;4952703;28;20054;-64
2021/01/14 11:26:30;;;;;;;2.08;0.85;;;21.10;51.00;;;;;;4948683;28;20047;-69
2021/01/14 11:28:56;;;;;;;3.63;1.30;;;21.20;49.20;;;;;;4951348;28;20031;-69
2021/01/14 11:31:26;;;;;;;2.28;0.98;;;21.20;48.10;;;;;;4948749;28;20027;-68
2021/01/14 11:33:52;;;;;;;3.30;0.90;;;21.30;47.60;;;;;;4950323;29;20034;-71
2021/01/14 11:36:20;;;;;;;8.10;1.23;;;21.20;47.40;;;;;;4951557;28;20039;-69
2021/01/14 11:38:47;;;;;;;3.25;0.93;;;21.30;47.20;;;;;;4948883;28;20079;-70
2021/01/14 11:41:17;;;;;;;5.95;0.90;;;21.30;47.10;;;;;;4957759;28;20042;-59
2021/01/14 11:43:43;;;;;;;1.60;0.98;;;21.30;46.90;;;;;;4952105;28;20043;-64
2021/01/14 11:46:09;;;;;;;3.03;0.90;;;21.30;46.90;;;;;;4952870;28;20079;-63
2021/01/14 11:48:35;;;;;;;4.53;1.15;;;21.30;46.70;;;;;;4952815;28;20555;-73
2021/01/14 11:51:01;;;;;;;1.80;0.82;;;21.30;46.80;;;;;;4951996;29;20027;-62
2021/01/14 11:53:27;;;;;;;3.00;0.75;;;21.30;47.10;;;;;;4958527;28;20039;-62
2021/01/14 11:55:52;;;;;;;3.03;0.90;;;21.20;46.20;;;;;;4951790;29;20387;-63
2021/01/14 11:58:18;;;;;;;3.75;0.90;;;21.20;46.30;;;;;;4951907;28;20035;-65
2021/01/14 12:00:45;;;;;;;3.60;1.20;;;21.30;46.30;;;;;;4954668;28;20037;-61
2021/01/14 12:03:11;;;;;;;2.40;0.88;;;21.30;46.10;;;;;;4953173;28;20019;-64
2021/01/14 12:05:37;;;;;;;6.88;0.98;;;21.40;46.10;;;;;;4952415;28;20078;-66
2021/01/14 12:08:03;;;;;;;3.90;1.17;;;21.40;45.90;;;;;;4952387;28;20038;-63
2021/01/14 12:10:31;;;;;;;1.90;1.05;;;21.40;45.70;;;;;;4953600;28;20023;-68
2021/01/14 12:12:57;;;;;;;3.90;0.90;;;21.50;45.80;;;;;;4953720;28;20215;-64
2021/01/14 12:15:23;;;;;;;5.13;0.80;;;21.50;45.50;;;;;;4953028;28;20042;-62
2021/01/14 12:17:49;;;;;;;6.50;0.90;;;21.50;45.50;;;;;;4951872;28;20030;-63
2021/01/14 12:20:15;;;;;;;2.55;0.70;;;21.50;45.30;;;;;;4943313;29;20047;-65
2021/01/14 12:22:42;;;;;;;5.13;0.80;;;21.50;45.10;;;;;;4950575;29;20035;-59
2021/01/14 12:25:12;;;;;;;1.85;0.80;;;21.50;45.60;;;;;;4945218;28;20972;-60
2021/01/14 12:27:39;;;;;;;6.30;1.02;;;21.50;45.10;;;;;;4953533;28;20035;-64
2021/01/14 12:30:06;;;;;;;4.60;0.77;;;21.60;45.00;;;;;;4934762;28;20059;-66
2021/01/14 12:32:32;;;;;;;3.50;0.90;;;21.60;45.00;;;;;;4949500;28;20031;-66
2021/01/14 12:34:58;;;;;;;3.60;0.80;;;21.60;44.80;;;;;;4952318;28;20035;-68
2021/01/14 12:37:24;;;;;;;6.68;0.77;;;21.60;44.80;;;;;;4955622;28;20115;-70
2021/01/14 12:39:50;;;;;;;3.45;0.82;;;21.60;44.80;;;;;;4955161;29;20035;-62
2021/01/14 12:42:16;;;;;;;3.30;1.20;;;21.60;44.80;;;;;;4956191;28;20129;-62
2021/01/14 12:44:41;;;;;;;6.38;0.82;;;21.70;44.70;;;;;;4953269;28;20085;-60
2021/01/14 12:47:09;;;;;;;5.85;1.02;;;21.70;44.60;;;;;;4954340;28;20368;-57
2021/01/14 12:49:35;;;;;;;8.10;1.55;;;21.70;44.50;;;;;;4953164;28;20166;-55
2021/01/14 12:52:01;;;;;;;3.97;0.90;;;21.70;44.50;;;;;;4953884;28;20094;-50
2021/01/14 12:54:27;;;;;;;4.03;0.90;;;21.60;44.30;;;;;;4955980;28;20039;-58
2021/01/14 12:56:53;;;;;;;4.40;0.90;;;21.50;44.60;;;;;;4953700;28;20038;-53
2021/01/14 12:59:19;;;;;;;2.17;0.65;;;21.60;44.50;;;;;;4954317;28;20038;-56
2021/01/14 13:01:45;;;;;;;3.60;0.95;;;21.50;44.40;;;;;;4956097;28;20035;-54
2021/01/14 13:04:11;;;;;;;5.80;1.05;;;21.50;44.40;;;;;;4959119;28;20050;-53
2021/01/14 13:06:38;;;;;;;3.67;0.90;;;21.50;44.30;;;;;;4955619;28;20019;-57
2021/01/14 13:09:08;;;;;;;5.47;0.93;;;21.50;44.20;;;;;;4956034;28;20086;-51
2021/01/14 13:11:36;;;;;;;5.63;0.90;;;21.50;44.20;;;;;;4959857;28;20376;-50
2021/01/14 13:14:02;;;;;;;3.67;1.10;;;21.50;44.10;;;;;;4974810;28;20129;-53
2021/01/14 13:16:35;;;;;;;1.48;0.80;;;21.50;44.00;;;;;;4975561;28;20027;-50
2021/01/14 13:19:02;;;;;;;6.00;0.90;;;21.50;44.10;;;;;;4975029;28;20063;-55
2021/01/14 13:21:41;;;;;;;2.88;1.02;;;21.50;44.10;;;;;;4975284;28;20383;-53
2021/01/14 13:24:09;;;;;;;4.72;0.90;;;21.50;44.00;;;;;;4976117;28;20023;-55
2021/01/14 13:26:35;;;;;;;6.28;0.77;;;21.50;44.00;;;;;;4975568;28;20162;-55
2021/01/14 13:29:03;;;;;;;2.95;1.00;;;21.60;43.80;;;;;;4974856;28;20034;-53
2021/01/14 13:31:44;;;;;;;4.80;0.90;;;21.50;43.80;;;;;;4963557;28;20031;-53
2021/01/14 13:34:10;;;;;;;6.90;1.08;;;21.40;44.00;;;;;;4955674;28;20058;-56
2021/01/14 13:36:37;;;;;;;5.18;0.85;;;21.30;44.10;;;;;;4956384;28;20070;-54
2021/01/14 13:39:05;;;;;;;7.72;1.10;;;21.30;44.10;;;;;;4954439;29;20041;-52
2021/01/14 13:41:31;;;;;;;3.72;0.82;;;21.30;44.10;;;;;;4955918;28;20022;-53
2021/01/14 13:43:57;;;;;;;3.88;0.80;;;21.30;44.20;;;;;;4955457;28;20218;-53
2021/01/14 13:46:26;;;;;;;2.10;0.82;;;21.30;44.10;;;;;;4954352;28;20028;-53
2021/01/14 13:49:07;;;;;;;3.53;0.80;;;21.30;44.10;;;;;;4955056;28;20396;-49
2021/01/14 13:51:34;;;;;;;1.63;0.90;;;21.30;44.00;;;;;;4955821;28;20053;-52
2021/01/14 13:54:00;;;;;;;2.53;1.15;;;21.30;44.00;;;;;;4955151;28;20181;-53